Time;durP1;ratioP1;P1;durP2;ratioP2;P2;SDS_P1;SDS_P2;PMS_P1;PMS_P2;Temp;Humidity;BMP_temperature;BMP_pressure;BME280_temperature;BME280_humidity;BME280_pressure;Samples;Min_cycle;Max_cycle;Signal;HPM_P1;HPM_P2
2021/04/24 00:00:19;;;;;;;6.80;3.40;;;11.40;99.90;;;;;;5033202;28;20637;-76
2021/04/24 00:02:46;;;;;;;5.20;3.50;;;11.40;99.90;;;;;;5015639;28;20306;-76
2021/04/24 00:05:17;;;;;;;6.50;3.43;;;11.40;99.90;;;;;;5018131;28;20285;-75
2021/04/24 00:07:44;;;;;;;9.03;3.70;;;11.30;99.90;;;;;;5015022;28;20252;-76
2021/04/24 00:10:12;;;;;;;5.33;3.60;;;11.40;99.90;;;;;;5021845;28;20296;-76
2021/04/24 00:12:38;;;;;;;5.67;3.20;;;11.40;99.90;;;;;;5020632;28;20239;-76
2021/04/24 00:15:09;;;;;;;8.97;3.60;;;11.40;99.90;;;;;;5028487;28;20274;-76
2021/04/24 00:17:35;;;;;;;6.03;3.90;;;11.30;99.90;;;;;;5017171;28;20243;-75
2021/04/24 00:20:02;;;;;;;8.00;3.90;;;11.30;99.90;;;;;;5025192;28;20294;-75
2021/04/24 00:22:30;;;;;;;6.63;3.97;;;11.20;99.90;;;;;;5017485;28;20225;-76
2021/04/24 00:24:57;;;;;;;6.00;3.80;;;11.20;99.90;;;;;;5016460;28;20299;-76
2021/04/24 00:27:23;;;;;;;7.47;3.93;;;11.10;99.90;;;;;;5014512;28;20238;-75
2021/04/24 00:29:50;;;;;;;6.53;3.63;;;11.30;99.90;;;;;;5017121;28;20203;-76
2021/04/24 00:32:17;;;;;;;6.03;3.50;;;11.10;99.90;;;;;;5014662;28;20291;-76
2021/04/24 00:34:44;;;;;;;6.17;3.70;;;11.10;99.90;;;;;;5013914;28;20292;-76
2021/04/24 00:37:10;;;;;;;7.50;4.00;;;11.10;99.90;;;;;;5031421;28;20274;-76
2021/04/24 00:39:36;;;;;;;7.87;4.00;;;11.10;99.90;;;;;;5034514;28;20252;-76
2021/04/24 00:42:03;;;;;;;7.23;3.93;;;11.20;99.90;;;;;;5025296;28;20248;-76
2021/04/24 00:44:30;;;;;;;5.23;4.23;;;11.20;99.90;;;;;;5013864;28;20364;-75
2021/04/24 00:46:57;;;;;;;8.37;4.10;;;11.10;99.90;;;;;;5014440;28;20295;-76
2021/04/24 00:49:24;;;;;;;6.87;4.20;;;11.10;99.90;;;;;;5020964;28;20289;-76
2021/04/24 00:51:52;;;;;;;7.40;4.20;;;11.00;99.90;;;;;;5027993;28;20202;-76
2021/04/24 00:54:19;;;;;;;6.33;4.13;;;11.10;99.90;;;;;;5032411;28;20584;-75
2021/04/24 00:56:45;;;;;;;9.83;4.63;;;11.00;99.90;;;;;;5032546;28;20288;-76
2021/04/24 00:59:12;;;;;;;9.83;4.37;;;11.00;99.90;;;;;;5013822;28;20299;-76
2021/04/24 01:01:38;;;;;;;10.30;3.93;;;11.00;99.90;;;;;;5031109;28;20203;-76
2021/04/24 01:04:05;;;;;;;8.13;4.33;;;11.00;99.90;;;;;;5021718;28;20223;-75
2021/04/24 01:06:33;;;;;;;7.77;4.13;;;11.00;99.90;;;;;;5019997;28;20240;-76
2021/04/24 01:08:59;;;;;;;8.17;4.50;;;11.00;99.90;;;;;;5020401;28;20286;-76
2021/04/24 01:11:26;;;;;;;7.87;4.37;;;11.00;99.90;;;;;;5033112;28;20294;-75
2021/04/24 01:13:52;;;;;;;7.60;4.47;;;11.00;99.90;;;;;;5017044;28;20319;-76
2021/04/24 01:16:19;;;;;;;8.10;4.10;;;11.00;99.90;;;;;;5016231;28;21123;-76
2021/04/24 01:18:45;;;;;;;7.53;4.50;;;11.00;99.90;;;;;;5031738;28;20302;-75
2021/04/24 01:21:12;;;;;;;7.63;4.43;;;10.90;99.90;;;;;;5014937;28;20340;-77
2021/04/24 01:23:40;;;;;;;7.50;4.50;;;10.90;99.90;;;;;;5015806;28;20219;-76
2021/04/24 01:26:07;;;;;;;7.70;4.10;;;11.00;99.90;;;;;;5033455;28;20201;-76
2021/04/24 01:28:34;;;;;;;7.50;4.30;;;10.90;99.90;;;;;;5032136;28;20303;-77
2021/04/24 01:31:01;;;;;;;6.97;4.60;;;10.90;99.90;;;;;;5019676;28;20216;-77
2021/04/24 01:33:28;;;;;;;7.70;4.47;;;10.80;99.90;;;;;;5017565;28;20595;-74
2021/04/24 01:35:54;;;;;;;7.53;4.37;;;10.90;99.90;;;;;;5028154;28;20291;-76
2021/04/24 01:38:21;;;;;;;7.43;4.50;;;10.80;99.90;;;;;;5013582;28;20206;-76
2021/04/24 01:40:48;;;;;;;9.60;5.30;;;10.80;99.90;;;;;;5023131;28;20204;-76
2021/04/24 01:43:15;;;;;;;8.27;4.90;;;10.80;99.90;;;;;;5021309;28;20743;-77
2021/04/24 01:45:41;;;;;;;6.80;4.83;;;10.80;99.90;;;;;;5032662;28;20255;-76
2021/04/24 01:48:09;;;;;;;9.10;4.83;;;10.70;99.90;;;;;;5032363;28;20749;-76
2021/04/24 01:50:38;;;;;;;8.13;4.70;;;10.70;99.90;;;;;;5029977;28;20210;-76
2021/04/24 01:53:06;;;;;;;7.60;5.23;;;10.70;99.90;;;;;;5032596;28;20311;-77
2021/04/24 01:55:34;;;;;;;6.57;4.40;;;10.70;99.90;;;;;;5029603;28;20210;-76
2021/04/24 01:58:04;;;;;;;7.20;4.87;;;10.70;99.90;;;;;;5023080;28;20237;-76
2021/04/24 02:00:33;;;;;;;9.23;4.80;;;10.70;99.90;;;;;;5029221;28;20290;-76
2021/04/24 02:03:02;;;;;;;7.83;4.70;;;10.70;99.90;;;;;;5017151;28;20316;-76
2021/04/24 02:05:28;;;;;;;8.47;4.80;;;10.70;99.90;;;;;;5024758;28;20838;-76
2021/04/24 02:07:57;;;;;;;12.77;5.07;;;10.70;99.90;;;;;;5017008;28;20304;-76
2021/04/24 02:10:24;;;;;;;8.73;4.47;;;10.70;99.90;;;;;;5019743;28;20298;-77
2021/04/24 02:12:51;;;;;;;7.37;4.60;;;10.60;99.90;;;;;;5013418;28;20218;-76
2021/04/24 02:15:18;;;;;;;7.07;4.50;;;10.60;99.90;;;;;;5016104;28;20292;-76
2021/04/24 02:17:44;;;;;;;8.83;4.87;;;10.50;99.90;;;;;;5012817;28;20233;-76
2021/04/24 02:20:12;;;;;;;9.20;4.67;;;10.50;99.90;;;;;;5019910;28;20243;-76
2021/04/24 02:22:39;;;;;;;8.23;4.60;;;10.50;99.90;;;;;;5019806;28;20286;-76
2021/04/24 02:25:08;;;;;;;9.83;5.50;;;10.60;99.90;;;;;;5012125;28;20208;-76
2021/04/24 02:27:34;;;;;;;7.70;4.73;;;10.50;99.90;;;;;;5012215;28;20290;-76
2021/04/24 02:30:01;;;;;;;10.57;4.87;;;10.50;99.90;;;;;;5013379;28;20676;-76
2021/04/24 02:32:32;;;;;;;7.50;4.73;;;10.40;99.90;;;;;;5014981;28;20285;-74
2021/04/24 02:35:00;;;;;;;8.40;4.90;;;10.40;99.90;;;;;;5012097;28;20338;-76
2021/04/24 02:37:27;;;;;;;8.07;4.80;;;10.40;99.90;;;;;;5013061;28;20211;-76
2021/04/24 02:39:54;;;;;;;7.83;4.60;;;10.40;99.90;;;;;;5024016;28;20287;-76
2021/04/24 02:42:23;;;;;;;8.73;5.00;;;10.30;99.90;;;;;;5025784;28;20367;-76
2021/04/24 02:44:50;;;;;;;7.07;5.00;;;10.30;99.90;;;;;;5023858;28;20285;-76
2021/04/24 02:47:19;;;;;;;9.83;4.97;;;10.40;99.90;;;;;;4994961;28;20287;-76
2021/04/24 02:49:46;;;;;;;6.93;4.50;;;10.40;99.90;;;;;;5016736;28;20729;-76
2021/04/24 02:52:13;;;;;;;10.70;4.40;;;10.40;99.90;;;;;;5028951;28;20358;-76
2021/04/24 02:54:40;;;;;;;9.60;5.00;;;10.30;99.90;;;;;;5028877;28;20226;-76
2021/04/24 02:57:07;;;;;;;7.97;4.73;;;10.40;99.90;;;;;;5015229;28;20691;-76
2021/04/24 02:59:33;;;;;;;7.17;4.30;;;10.30;99.90;;;;;;5026108;28;20269;-76
2021/04/24 03:02:01;;;;;;;8.23;4.60;;;10.40;99.90;;;;;;5020445;28;20749;-76
2021/04/24 03:04:27;;;;;;;9.80;4.87;;;10.40;99.90;;;;;;5018651;28;20314;-76
2021/04/24 03:06:54;;;;;;;8.40;5.17;;;10.40;99.90;;;;;;5012153;28;20298;-75
2021/04/24 03:09:21;;;;;;;7.23;4.80;;;10.30;99.90;;;;;;5011358;28;20286;-76
2021/04/24 03:11:48;;;;;;;7.07;4.60;;;10.30;99.90;;;;;;5011496;28;20291;-75
2021/04/24 03:14:15;;;;;;;8.27;4.60;;;10.20;99.90;;;;;;5029051;28;20322;-76
2021/04/24 03:16:41;;;;;;;8.43;4.60;;;10.20;99.90;;;;;;5031792;28;20226;-75
2021/04/24 03:19:09;;;;;;;8.20;4.33;;;10.10;99.90;;;;;;5020718;28;20197;-76
2021/04/24 03:21:36;;;;;;;8.50;4.70;;;10.10;99.90;;;;;;5011645;28;20292;-75
2021/04/24 03:24:04;;;;;;;10.00;4.73;;;10.10;99.90;;;;;;5030952;28;20573;-76
2021/04/24 03:26:31;;;;;;;8.23;4.73;;;10.20;99.90;;;;;;5030143;28;20204;-76
2021/04/24 03:28:58;;;;;;;7.23;4.40;;;10.20;99.90;;;;;;5026235;28;20288;-76
2021/04/24 03:31:24;;;;;;;7.57;4.77;;;10.20;99.90;;;;;;5017015;28;20246;-75
2021/04/24 03:33:51;;;;;;;7.73;4.53;;;10.10;99.90;;;;;;5013209;28;20309;-76
2021/04/24 03:36:17;;;;;;;6.60;4.13;;;10.00;99.90;;;;;;5015560;28;20609;-76
2021/04/24 03:38:44;;;;;;;8.27;4.90;;;9.90;99.90;;;;;;5027747;28;20300;-75
2021/04/24 03:41:12;;;;;;;9.17;4.97;;;9.90;99.90;;;;;;5029835;28;20280;-76
2021/04/24 03:43:38;;;;;;;8.40;4.67;;;9.90;99.90;;;;;;5020280;28;20309;-76
2021/04/24 03:46:05;;;;;;;7.80;4.77;;;9.80;99.90;;;;;;5015547;28;20293;-75
2021/04/24 03:48:32;;;;;;;8.27;4.80;;;9.70;99.90;;;;;;5025884;28;20202;-75
2021/04/24 03:50:59;;;;;;;6.70;4.67;;;9.70;99.90;;;;;;5033837;28;20319;-75
2021/04/24 03:53:25;;;;;;;8.63;4.63;;;9.60;99.90;;;;;;5021826;28;20227;-75
2021/04/24 03:55:51;;;;;;;7.97;4.73;;;9.60;99.90;;;;;;5022261;28;20209;-75
2021/04/24 03:58:19;;;;;;;8.10;5.00;;;9.50;99.90;;;;;;5035161;28;20230;-75
2021/04/24 04:00:46;;;;;;;9.00;4.97;;;9.40;99.90;;;;;;5033857;28;20607;-75
2021/04/24 04:03:13;;;;;;;8.47;4.87;;;9.40;99.90;;;;;;5016691;28;20232;-75
2021/04/24 04:05:42;;;;;;;8.03;4.97;;;9.30;99.90;;;;;;5027866;28;20223;-75
2021/04/24 04:08:10;;;;;;;8.53;5.00;;;9.10;99.90;;;;;;4997161;28;20209;-75
2021/04/24 04:10:39;;;;;;;7.27;4.73;;;9.10;99.90;;;;;;5023670;28;20284;-76
2021/04/24 04:13:06;;;;;;;10.40;5.00;;;9.20;99.90;;;;;;5027081;28;21000;-76
2021/04/24 04:15:34;;;;;;;9.30;4.60;;;9.10;99.90;;;;;;5034083;28;20240;-75
2021/04/24 04:18:05;;;;;;;8.40;4.87;;;9.10;99.90;;;;;;5016514;28;20285;-75
2021/04/24 04:20:32;;;;;;;8.03;4.90;;;9.10;99.90;;;;;;5015021;28;20700;-75
2021/04/24 04:22:59;;;;;;;10.27;4.83;;;9.10;99.90;;;;;;5014107;28;20359;-75
2021/04/24 04:25:26;;;;;;;7.23;5.00;;;9.10;99.90;;;;;;5017046;28;20658;-76
2021/04/24 04:27:53;;;;;;;7.37;4.50;;;9.10;99.90;;;;;;5014186;28;20239;-75
2021/04/24 04:30:21;;;;;;;9.07;4.80;;;8.90;99.90;;;;;;5016147;28;20287;-75
2021/04/24 04:32:48;;;;;;;7.67;4.93;;;9.00;99.90;;;;;;5034336;28;20303;-75
2021/04/24 04:35:16;;;;;;;11.40;4.87;;;9.20;99.90;;;;;;5017035;28;20635;-76
2021/04/24 04:37:43;;;;;;;7.63;4.50;;;9.00;99.90;;;;;;5024335;28;20287;-76
2021/04/24 04:40:12;;;;;;;8.60;4.67;;;9.10;99.90;;;;;;5015737;28;20288;-75
2021/04/24 04:42:39;;;;;;;7.87;4.60;;;8.90;99.90;;;;;;5017672;28;20253;-75
2021/04/24 04:45:08;;;;;;;7.60;4.80;;;8.90;99.90;;;;;;5016231;28;20294;-75
2021/04/24 04:47:34;;;;;;;7.77;4.60;;;8.90;99.90;;;;;;5033655;28;20287;-75
2021/04/24 04:50:03;;;;;;;10.50;4.80;;;8.90;99.90;;;;;;5029886;28;20290;-76
2021/04/24 04:52:29;;;;;;;11.37;5.27;;;9.00;99.90;;;;;;5025227;28;20207;-76
2021/04/24 04:54:56;;;;;;;7.77;4.90;;;9.00;99.90;;;;;;5019216;28;20686;-75
2021/04/24 04:57:22;;;;;;;8.57;4.63;;;9.10;99.90;;;;;;5025516;28;20723;-76
2021/04/24 04:59:49;;;;;;;9.60;5.00;;;9.00;99.90;;;;;;5029415;28;20300;-75
2021/04/24 05:02:15;;;;;;;9.43;5.10;;;8.90;99.90;;;;;;5033317;28;20204;-75
2021/04/24 05:04:42;;;;;;;8.03;4.70;;;8.70;99.90;;;;;;5033860;28;20755;-75
2021/04/24 05:07:09;;;;;;;8.77;4.33;;;8.60;99.90;;;;;;5025088;28;20326;-75
2021/04/24 05:09:35;;;;;;;8.57;4.87;;;8.60;99.90;;;;;;5033420;28;20226;-75
2021/04/24 05:12:02;;;;;;;7.90;5.13;;;8.70;99.90;;;;;;5028143;28;20236;-76
2021/04/24 05:14:28;;;;;;;7.10;4.33;;;8.70;99.90;;;;;;5033166;28;20235;-75
2021/04/24 05:16:54;;;;;;;7.40;4.50;;;8.80;99.90;;;;;;5029428;28;20203;-76
2021/04/24 05:19:21;;;;;;;8.73;5.10;;;8.80;99.90;;;;;;5023562;28;20715;-76
2021/04/24 05:21:47;;;;;;;7.67;5.00;;;8.80;99.90;;;;;;5033424;28;20227;-75
2021/04/24 05:24:14;;;;;;;8.63;4.70;;;8.90;99.90;;;;;;5031061;28;20315;-75
2021/04/24 05:26:41;;;;;;;8.47;4.43;;;8.90;99.90;;;;;;5015469;28;20232;-76
2021/04/24 05:29:07;;;;;;;6.50;4.50;;;9.00;99.90;;;;;;5026605;28;20413;-76
2021/04/24 05:31:34;;;;;;;9.20;4.77;;;8.90;99.90;;;;;;5030624;28;20381;-75
2021/04/24 05:34:00;;;;;;;7.13;4.70;;;9.00;99.90;;;;;;5019322;28;20292;-75
2021/04/24 05:36:27;;;;;;;9.43;5.23;;;9.20;99.90;;;;;;5015658;28;20205;-76
2021/04/24 05:38:54;;;;;;;9.00;4.67;;;9.30;99.90;;;;;;5024688;28;20288;-75
2021/04/24 05:41:22;;;;;;;7.70;5.10;;;9.40;99.90;;;;;;5029963;28;20984;-76
2021/04/24 05:43:49;;;;;;;8.87;5.10;;;9.50;99.90;;;;;;5027970;28;20216;-75
2021/04/24 05:46:16;;;;;;;8.00;4.93;;;9.60;99.90;;;;;;5016758;28;20295;-75
2021/04/24 05:48:43;;;;;;;9.57;5.30;;;9.90;99.90;;;;;;5013084;28;20341;-75
2021/04/24 05:51:11;;;;;;;7.30;4.57;;;10.20;99.90;;;;;;5012853;28;20618;-75
2021/04/24 05:53:38;;;;;;;9.30;5.10;;;10.30;99.90;;;;;;5017675;28;20226;-75
2021/04/24 05:56:04;;;;;;;7.77;4.43;;;10.60;99.90;;;;;;5016009;28;20232;-75
2021/04/24 05:58:32;;;;;;;8.40;4.73;;;11.00;99.90;;;;;;5014714;28;20317;-76
2021/04/24 06:00:58;;;;;;;9.10;4.57;;;11.30;99.90;;;;;;5012217;28;20284;-76
2021/04/24 06:03:24;;;;;;;8.07;4.87;;;11.60;99.90;;;;;;5016909;28;20220;-76
2021/04/24 06:05:51;;;;;;;6.17;4.47;;;11.80;99.90;;;;;;5015119;28;20296;-76
2021/04/24 06:08:17;;;;;;;8.27;4.83;;;12.30;99.90;;;;;;5013913;28;20232;-75
2021/04/24 06:10:44;;;;;;;7.97;4.73;;;12.70;99.90;;;;;;5011854;28;21028;-76
2021/04/24 06:13:10;;;;;;;6.60;4.63;;;12.80;99.40;;;;;;5018452;28;20220;-76
2021/04/24 06:15:38;;;;;;;8.67;4.90;;;13.20;98.50;;;;;;5011644;28;20292;-75
2021/04/24 06:18:05;;;;;;;6.47;4.73;;;13.40;98.30;;;;;;5013505;28;20619;-75
2021/04/24 06:20:31;;;;;;;7.00;4.40;;;13.90;97.90;;;;;;5013734;28;20232;-76
2021/04/24 06:22:58;;;;;;;6.77;4.77;;;13.90;96.90;;;;;;5016261;28;20358;-75
2021/04/24 06:25:24;;;;;;;8.80;4.90;;;14.30;96.30;;;;;;5012901;28;20287;-76
2021/04/24 06:27:51;;;;;;;6.27;4.37;;;14.80;95.30;;;;;;5014251;28;20201;-76
2021/04/24 06:30:19;;;;;;;8.50;4.87;;;15.10;94.20;;;;;;5012369;28;20284;-76
2021/04/24 06:32:49;;;;;;;8.87;5.50;;;15.70;92.80;;;;;;5012663;28;20771;-76
2021/04/24 06:35:17;;;;;;;8.17;5.50;;;15.60;92.10;;;;;;5011208;28;20236;-76
2021/04/24 06:37:43;;;;;;;8.70;5.50;;;16.00;92.30;;;;;;5012018;28;20331;-76
2021/04/24 06:40:12;;;;;;;8.83;4.93;;;16.20;91.20;;;;;;5016494;28;20284;-76
2021/04/24 06:42:39;;;;;;;7.63;5.00;;;16.20;90.70;;;;;;5011365;28;20284;-76
2021/04/24 06:45:08;;;;;;;6.63;4.80;;;16.70;90.60;;;;;;5011061;28;20316;-76
2021/04/24 06:47:35;;;;;;;7.57;5.00;;;16.10;89.50;;;;;;5011120;28;20193;-76
2021/04/24 06:50:05;;;;;;;10.17;5.23;;;16.90;90.00;;;;;;5012904;28;20291;-76
2021/04/24 06:52:31;;;;;;;13.10;5.32;;;17.00;88.30;;;;;;5015710;28;20642;-76
2021/04/24 06:54:58;;;;;;;10.73;5.18;;;17.30;88.00;;;;;;5015848;28;20704;-76
2021/04/24 06:57:25;;;;;;;9.40;5.38;;;16.50;87.80;;;;;;5011662;28;20284;-76
2021/04/24 06:59:51;;;;;;;10.30;5.57;;;16.60;87.40;;;;;;5012486;28;20280;-76
2021/04/24 07:02:18;;;;;;;7.82;5.40;;;16.60;87.20;;;;;;5012560;28;21923;-76
2021/04/24 07:04:45;;;;;;;7.40;5.10;;;16.80;87.60;;;;;;5012091;28;20267;-76
2021/04/24 07:07:13;;;;;;;10.50;5.40;;;17.30;86.80;;;;;;5011958;28;20229;-76
2021/04/24 07:09:39;;;;;;;7.00;5.05;;;17.80;85.30;;;;;;5007339;28;20340;-76
2021/04/24 07:12:07;;;;;;;9.05;5.55;;;18.60;84.10;;;;;;5012622;28;20818;-76
2021/04/24 07:14:33;;;;;;;6.78;5.70;;;17.70;83.30;;;;;;5014883;28;20248;-76
2021/04/24 07:16:59;;;;;;;9.35;5.25;;;17.20;82.50;;;;;;5011278;28;20292;-76
2021/04/24 07:19:26;;;;;;;9.93;6.22;;;17.40;83.90;;;;;;5013625;28;20768;-76
2021/04/24 07:21:53;;;;;;;6.35;4.85;;;17.40;82.50;;;;;;5016227;28;20225;-76
2021/04/24 07:24:20;;;;;;;7.53;5.05;;;17.50;82.90;;;;;;5013438;28;20217;-76
2021/04/24 07:26:46;;;;;;;7.93;5.32;;;18.30;83.20;;;;;;5014235;28;20288;-75
2021/04/24 07:29:13;;;;;;;9.25;5.53;;;18.40;82.10;;;;;;5014619;28;20287;-76
2021/04/24 07:31:39;;;;;;;10.18;5.50;;;19.80;80.60;;;;;;5010971;28;20713;-75
2021/04/24 07:34:07;;;;;;;7.63;5.05;;;19.90;77.90;;;;;;5011557;28;20284;-74
2021/04/24 07:36:34;;;;;;;9.50;5.20;;;19.60;77.20;;;;;;5012411;28;20201;-75
2021/04/24 07:39:01;;;;;;;8.55;5.45;;;19.60;77.90;;;;;;5009443;28;20204;-76
2021/04/24 07:41:28;;;;;;;8.07;5.35;;;19.30;78.10;;;;;;5009427;28;20271;-76
2021/04/24 07:43:55;;;;;;;8.32;5.00;;;19.30;80.10;;;;;;5014905;28;20311;-75
2021/04/24 07:46:21;;;;;;;9.75;5.50;;;19.30;79.50;;;;;;5004903;28;21636;-75
2021/04/24 07:48:48;;;;;;;8.57;5.30;;;18.80;79.80;;;;;;5007884;28;20207;-75
2021/04/24 07:51:14;;;;;;;9.05;5.70;;;19.50;81.10;;;;;;5009227;28;20984;-75
2021/04/24 07:53:42;;;;;;;7.68;5.40;;;19.00;79.40;;;;;;5007989;28;20197;-73
2021/04/24 07:56:09;;;;;;;9.13;5.28;;;19.00;79.70;;;;;;5008476;28;20825;-76
2021/04/24 07:58:36;;;;;;;7.95;5.40;;;18.70;81.00;;;;;;5007135;28;20200;-74
2021/04/24 08:01:03;;;;;;;7.60;5.25;;;18.30;81.00;;;;;;5008646;28;20700;-74
2021/04/24 08:03:30;;;;;;;7.68;5.32;;;18.50;80.40;;;;;;5011017;28;20217;-74
2021/04/24 08:05:56;;;;;;;7.63;4.80;;;19.30;81.30;;;;;;5008690;28;20263;-74
2021/04/24 08:08:23;;;;;;;7.60;4.80;;;19.60;79.50;;;;;;5006340;28;20203;-73
2021/04/24 08:10:54;;;;;;;8.75;5.18;;;19.60;78.50;;;;;;5009513;28;20733;-75
2021/04/24 08:13:20;;;;;;;7.45;5.05;;;19.00;78.60;;;;;;5008384;28;20225;-75
2021/04/24 08:15:49;;;;;;;8.75;4.90;;;19.10;78.20;;;;;;5007866;28;20723;-75
2021/04/24 08:18:15;;;;;;;7.63;5.25;;;18.40;80.00;;;;;;5009550;28;20201;-75
2021/04/24 08:20:42;;;;;;;6.97;5.07;;;18.90;80.50;;;;;;5013924;28;20248;-75
2021/04/24 08:23:08;;;;;;;6.50;5.18;;;20.40;82.40;;;;;;5012289;28;20287;-74
2021/04/24 08:25:35;;;;;;;7.57;5.50;;;20.50;78.80;;;;;;5014834;28;20332;-74
2021/04/24 08:28:01;;;;;;;6.43;4.88;;;19.90;77.40;;;;;;5014222;28;20240;-74
2021/04/24 08:30:30;;;;;;;7.78;4.80;;;19.60;79.30;;;;;;5020754;28;20305;-74
2021/04/24 08:32:57;;;;;;;6.53;5.07;;;19.70;77.90;;;;;;5008892;28;20227;-74
2021/04/24 08:35:24;;;;;;;10.52;5.15;;;20.30;76.90;;;;;;5013304;28;20661;-75
2021/04/24 08:37:50;;;;;;;8.45;5.13;;;20.20;78.50;;;;;;5020300;28;20284;-74
2021/04/24 08:40:18;;;;;;;7.25;4.82;;;20.40;78.50;;;;;;5013708;28;20296;-74
2021/04/24 08:42:46;;;;;;;8.27;5.10;;;21.50;76.10;;;;;;5021741;28;20673;-74
2021/04/24 08:45:18;;;;;;;8.50;4.90;;;22.10;78.60;;;;;;5013017;28;20231;-75
2021/04/24 08:47:48;;;;;;;8.68;5.05;;;22.00;75.50;;;;;;5018542;28;20224;-74
2021/04/24 08:50:19;;;;;;;6.43;4.82;;;21.30;74.70;;;;;;5007858;28;20255;-74
2021/04/24 08:52:47;;;;;;;7.68;4.60;;;21.30;74.40;;;;;;5016203;28;20232;-75
2021/04/24 08:55:19;;;;;;;9.30;5.30;;;21.80;76.00;;;;;;5017983;28;20231;-74
2021/04/24 08:57:47;;;;;;;8.88;4.95;;;22.50;72.90;;;;;;5012801;28;20212;-74
2021/04/24 09:00:17;;;;;;;7.25;4.53;;;23.00;73.50;;;;;;5016418;28;20284;-76
2021/04/24 09:02:44;;;;;;;9.60;5.13;;;22.80;74.70;;;;;;5023120;28;20224;-75
2021/04/24 09:05:14;;;;;;;12.00;5.15;;;22.80;72.00;;;;;;5014490;28;20315;-75
2021/04/24 09:07:42;;;;;;;7.38;5.03;;;22.70;72.80;;;;;;5005061;28;20296;-76
2021/04/24 09:10:16;;;;;;;7.70;4.43;;;21.70;73.40;;;;;;5014065;28;20288;-76
2021/04/24 09:12:45;;;;;;;8.32;5.40;;;22.60;73.70;;;;;;4996124;28;20775;-76
2021/04/24 09:15:15;;;;;;;10.27;4.90;;;21.70;72.10;;;;;;5021113;28;20746;-76
2021/04/24 09:17:57;;;;;;;7.88;4.93;;;21.70;73.70;;;;;;5012956;28;20300;-75
2021/04/24 09:20:26;;;;;;;7.53;4.55;;;22.60;72.90;;;;;;4995441;28;20232;-75
2021/04/24 09:23:03;;;;;;;7.78;4.80;;;23.10;71.40;;;;;;5006579;28;20681;-75
2021/04/24 09:25:32;;;;;;;10.98;4.40;;;22.90;72.80;;;;;;5013776;28;20328;-76
2021/04/24 09:27:59;;;;;;;9.35;4.70;;;23.10;73.50;;;;;;5012453;28;20229;-76
2021/04/24 09:30:28;;;;;;;7.10;4.80;;;24.00;73.40;;;;;;5008153;28;20251;-76
2021/04/24 09:33:00;;;;;;;5.85;4.25;;;24.10;71.40;;;;;;5013189;28;20245;-76
2021/04/24 09:35:27;;;;;;;8.63;4.90;;;24.40;67.60;;;;;;5009750;28;20689;-76
2021/04/24 09:37:59;;;;;;;7.35;4.80;;;23.20;66.50;;;;;;5011061;28;20295;-75
2021/04/24 09:40:26;;;;;;;6.95;4.28;;;22.90;68.30;;;;;;5012452;28;20197;-76
2021/04/24 09:42:58;;;;;;;7.95;4.90;;;23.00;67.20;;;;;;5011612;28;20248;-76
2021/04/24 09:45:28;;;;;;;8.63;4.60;;;22.80;68.00;;;;;;5016184;28;20224;-76
2021/04/24 09:47:55;;;;;;;7.47;4.15;;;22.80;67.80;;;;;;5017254;28;20247;-76
2021/04/24 09:50:29;;;;;;;8.90;4.25;;;23.60;66.20;;;;;;5020256;28;20351;-76
2021/04/24 09:53:16;;;;;;;5.68;4.32;;;23.00;68.20;;;;;;5007826;28;20204;-76
2021/04/24 09:55:49;;;;;;;7.13;4.63;;;24.80;65.80;;;;;;5006292;28;20208;-76
2021/04/24 09:58:32;;;;;;;6.85;4.28;;;23.60;64.00;;;;;;5009608;28;20204;-77
2021/04/24 10:01:19;;;;;;;8.75;4.72;;;22.60;68.20;;;;;;5009009;28;20276;-76
2021/04/24 10:03:48;;;;;;;6.70;4.63;;;22.10;68.00;;;;;;5007698;28;20312;-76
2021/04/24 10:06:29;;;;;;;7.00;5.43;;;22.10;69.70;;;;;;5008181;28;20299;-76
2021/04/24 10:09:17;;;;;;;8.23;4.60;;;21.50;70.70;;;;;;5009896;28;20201;-76
2021/04/24 10:11:48;;;;;;;7.78;4.57;;;20.90;73.60;;;;;;5010878;28;20201;-75
2021/04/24 10:14:26;;;;;;;7.82;4.63;;;21.00;72.10;;;;;;5012535;28;20236;-75
2021/04/24 10:16:52;;;;;;;6.88;4.20;;;21.40;71.10;;;;;;4983046;28;20283;-76
2021/04/24 10:19:19;;;;;;;7.85;4.35;;;22.20;73.00;;;;;;5010929;28;20198;-76
2021/04/24 10:21:45;;;;;;;5.35;4.07;;;21.20;71.40;;;;;;5012230;28;20278;-76
2021/04/24 10:24:13;;;;;;;11.95;4.63;;;21.40;72.60;;;;;;5013537;28;20254;-75
2021/04/24 10:26:42;;;;;;;10.07;4.80;;;21.60;70.70;;;;;;5015625;28;20236;-78
2021/04/24 10:29:09;;;;;;;7.47;5.15;;;22.80;72.60;;;;;;5012666;28;20284;-77
2021/04/24 10:31:36;;;;;;;7.57;5.82;;;22.50;69.30;;;;;;5014937;28;20232;-77
2021/04/24 10:34:05;;;;;;;7.80;4.80;;;22.40;71.30;;;;;;5016720;28;20189;-77
2021/04/24 10:36:32;;;;;;;6.50;4.80;;;21.70;70.50;;;;;;5011265;28;20193;-78
2021/04/24 10:38:59;;;;;;;7.93;4.45;;;23.00;70.30;;;;;;4993443;28;20240;-76
2021/04/24 10:41:29;;;;;;;6.80;4.80;;;23.70;66.10;;;;;;5016775;28;20283;-77
2021/04/24 10:44:01;;;;;;;7.20;4.20;;;23.40;66.90;;;;;;5012982;28;20309;-75
2021/04/24 10:46:31;;;;;;;5.80;4.30;;;23.70;66.70;;;;;;5014561;28;20227;-75
2021/04/24 10:49:22;;;;;;;8.13;4.22;;;23.80;64.50;;;;;;5016401;28;20273;-75
2021/04/24 10:52:00;;;;;;;6.95;4.55;;;24.00;63.80;;;;;;5017044;28;20245;-76
2021/04/24 10:54:29;;;;;;;10.43;7.18;;;23.50;64.20;;;;;;5013976;28;20706;-74
2021/04/24 10:56:57;;;;;;;8.88;4.65;;;23.40;64.70;;;;;;5011156;28;20300;-77
2021/04/24 10:59:25;;;;;;;7.93;4.60;;;23.20;65.30;;;;;;5010947;28;20288;-77
2021/04/24 11:02:13;;;;;;;8.75;4.22;;;23.80;64.10;;;;;;5011446;28;20292;-77
2021/04/24 11:04:48;;;;;;;5.85;4.78;;;24.90;65.00;;;;;;5005486;28;20311;-77
2021/04/24 11:07:24;;;;;;;5.90;3.88;;;24.50;63.50;;;;;;5012097;28;20299;-77
2021/04/24 11:10:25;;;;;;;6.57;3.72;;;23.40;65.10;;;;;;5011837;28;20280;-77
2021/04/24 11:12:52;;;;;;;8.77;4.05;;;23.80;62.20;;;;;;5014535;28;20216;-78
2021/04/24 11:15:20;;;;;;;5.72;3.40;;;23.80;64.10;;;;;;5013250;28;20894;-75
2021/04/24 11:17:49;;;;;;;5.10;3.70;;;24.90;61.90;;;;;;5014494;28;20300;-78
2021/04/24 11:20:49;;;;;;;6.20;3.85;;;25.00;63.30;;;;;;5015583;28;20229;-77
2021/04/24 11:23:52;;;;;;;6.38;3.25;;;24.70;62.90;;;;;;5010749;28;20205;-78
2021/04/24 11:26:22;;;;;;;6.07;3.63;;;24.10;60.80;;;;;;5016599;28;20215;-78
2021/04/24 11:29:09;;;;;;;5.07;3.60;;;24.50;60.50;;;;;;5012465;28;20645;-77
2021/04/24 11:31:57;;;;;;;5.85;3.40;;;25.40;59.70;;;;;;5000782;28;20283;-77
2021/04/24 11:34:43;;;;;;;7.13;3.65;;;25.30;62.00;;;;;;5010864;28;20705;-77
2021/04/24 11:37:24;;;;;;;6.47;3.95;;;24.80;61.10;;;;;;5011546;28;20271;-77
2021/04/24 11:40:23;;;;;;;6.50;3.60;;;24.50;61.40;;;;;;5009199;28;20201;-76
2021/04/24 11:43:09;;;;;;;4.22;3.63;;;23.70;60.60;;;;;;4920670;29;20211;-79
2021/04/24 11:45:58;;;;;;;4.93;3.40;;;24.90;60.90;;;;;;4922779;29;20881;-76
2021/04/24 11:48:58;;;;;;;7.05;3.95;;;25.60;59.50;;;;;;4921936;29;20216;-77
2021/04/24 11:51:46;;;;;;;5.70;3.05;;;25.20;58.20;;;;;;4921652;29;20987;-77
2021/04/24 11:54:15;;;;;;;6.95;3.78;;;24.90;58.20;;;;;;4918798;29;20317;-78
2021/04/24 11:56:46;;;;;;;4.97;3.22;;;25.20;59.00;;;;;;4934474;29;20294;-78
2021/04/24 11:59:13;;;;;;;4.95;3.15;;;25.60;61.10;;;;;;4930154;29;20288;-77
2021/04/24 12:01:39;;;;;;;5.45;3.05;;;24.80;57.40;;;;;;4923212;29;20544;-77
2021/04/24 12:04:22;;;;;;;5.28;3.30;;;24.50;60.90;;;;;;4931063;29;20412;-77
2021/04/24 12:06:58;;;;;;;6.18;3.33;;;24.90;58.40;;;;;;4938856;29;20679;-76
2021/04/24 12:09:27;;;;;;;4.28;2.83;;;24.60;57.90;;;;;;4935521;29;20287;-78
2021/04/24 12:12:03;;;;;;;4.25;3.08;;;24.90;59.40;;;;;;4932094;29;20211;-80
2021/04/24 12:14:31;;;;;;;7.15;3.40;;;24.50;58.20;;;;;;4927803;29;20232;-79
2021/04/24 12:16:57;;;;;;;4.53;3.15;;;24.70;62.30;;;;;;4981712;28;20208;-78
2021/04/24 12:19:29;;;;;;;4.35;2.90;;;24.80;58.10;;;;;;5014787;28;20235;-76
2021/04/24 12:22:09;;;;;;;6.15;3.28;;;23.90;57.70;;;;;;5028833;28;20226;-76
2021/04/24 12:24:36;;;;;;;5.90;2.80;;;24.50;58.00;;;;;;5013202;28;20303;-75
2021/04/24 12:27:22;;;;;;;6.22;3.08;;;24.30;57.60;;;;;;5018316;28;20661;-75
2021/04/24 12:29:50;;;;;;;6.55;3.10;;;25.70;58.20;;;;;;5015772;28;20288;-75
2021/04/24 12:32:18;;;;;;;5.13;2.67;;;25.10;57.90;;;;;;5012558;28;20205;-75
2021/04/24 12:34:44;;;;;;;6.40;2.58;;;24.60;58.90;;;;;;5012184;28;20233;-75
2021/04/24 12:37:14;;;;;;;4.90;2.70;;;24.70;58.40;;;;;;5012689;28;20205;-76
2021/04/24 12:39:41;;;;;;;5.47;2.85;;;24.80;59.80;;;;;;5013954;28;20205;-76
2021/04/24 12:42:10;;;;;;;5.00;2.58;;;25.50;59.70;;;;;;5013716;28;20292;-75
2021/04/24 12:44:38;;;;;;;4.97;3.10;;;24.90;57.90;;;;;;5014591;28;20235;-75
2021/04/24 12:47:04;;;;;;;3.22;2.70;;;24.90;56.80;;;;;;5013118;28;20232;-75
2021/04/24 12:49:31;;;;;;;5.32;3.20;;;24.90;57.60;;;;;;5020704;28;20280;-75
2021/04/24 12:52:00;;;;;;;3.90;2.80;;;25.00;58.20;;;;;;5013436;28;20687;-75
2021/04/24 12:54:28;;;;;;;4.53;2.80;;;24.90;58.70;;;;;;5012563;28;20263;-75
2021/04/24 12:57:18;;;;;;;4.82;2.92;;;25.60;58.30;;;;;;5013084;28;20236;-76